createdAt,value
2018-07-11T00:01:46.263Z,98.20
2018-07-11T00:04:14.473Z,98.40
2018-07-11T00:06:42.668Z,98.50
2018-07-11T00:09:11.010Z,98.60
2018-07-11T00:11:39.214Z,98.40
2018-07-11T00:14:07.438Z,98.80
2018-07-11T00:16:35.661Z,99.10
2018-07-11T00:19:03.866Z,98.60
2018-07-11T00:21:32.111Z,99.10
2018-07-11T00:24:00.323Z,98.80
2018-07-11T00:26:28.550Z,99.20
2018-07-11T00:28:56.764Z,99.30
2018-07-11T00:31:25.006Z,99.20
2018-07-11T00:33:53.218Z,99.70
2018-07-11T00:38:49.366Z,99.70
2018-07-11T00:41:17.589Z,99.60
2018-07-11T00:43:45.789Z,99.60
2018-07-11T00:46:16.038Z,99.50
2018-07-11T00:48:44.275Z,99.60
2018-07-11T00:51:12.562Z,99.60
2018-07-11T00:53:40.812Z,99.70
2018-07-11T00:56:09.087Z,99.90
2018-07-11T00:58:44.362Z,99.90
2018-07-11T01:01:15.650Z,99.90
2018-07-11T01:03:49.718Z,99.90
2018-07-11T01:06:18.471Z,99.90
2018-07-11T01:08:47.227Z,99.90
2018-07-11T01:11:16.989Z,99.90
2018-07-11T01:13:46.654Z,99.90
2018-07-11T01:16:16.312Z,99.90
2018-07-11T01:18:55.305Z,99.90
2018-07-11T01:21:23.545Z,99.90
2018-07-11T01:23:51.795Z,99.90
2018-07-11T01:26:23.639Z,99.90
2018-07-11T01:31:19.685Z,99.90
2018-07-11T01:33:47.822Z,99.90
2018-07-11T01:36:16.093Z,99.90
2018-07-11T01:38:44.278Z,99.90
2018-07-11T01:41:12.582Z,99.90
2018-07-11T01:43:40.729Z,99.90
2018-07-11T01:46:08.945Z,99.90
2018-07-11T01:48:37.118Z,99.90
2018-07-11T01:51:05.267Z,99.90
2018-07-11T01:53:33.407Z,99.90
2018-07-11T01:56:01.570Z,99.90
2018-07-11T01:58:30.020Z,99.90
2018-07-11T02:00:58.162Z,99.90
2018-07-11T02:03:26.302Z,99.90
2018-07-11T02:08:23.598Z,99.90
2018-07-11T02:10:51.954Z,99.90
2018-07-11T02:13:20.098Z,99.90
2018-07-11T02:15:49.222Z,99.90
2018-07-11T02:18:20.142Z,99.90
2018-07-11T02:20:48.278Z,99.90
2018-07-11T02:23:16.658Z,99.90
2018-07-11T02:25:44.858Z,99.90
2018-07-11T02:28:13.004Z,99.90
2018-07-11T02:30:41.160Z,99.90
2018-07-11T02:33:09.338Z,99.90
2018-07-11T02:35:37.477Z,99.90
2018-07-11T02:38:05.606Z,99.90
2018-07-11T02:43:01.825Z,99.90
2018-07-11T02:45:29.986Z,99.90
2018-07-11T02:47:58.210Z,99.90
2018-07-11T02:50:26.430Z,99.90
2018-07-11T02:52:54.625Z,99.90
2018-07-11T02:55:22.837Z,99.90
2018-07-11T02:57:51.067Z,99.90
2018-07-11T03:00:19.268Z,99.90
2018-07-11T03:02:47.501Z,99.90
2018-07-11T03:05:16.366Z,99.90
2018-07-11T03:07:44.597Z,99.90
2018-07-11T03:10:12.828Z,99.90
2018-07-11T03:12:41.026Z,99.90
2018-07-11T03:15:09.222Z,99.90
2018-07-11T03:17:37.962Z,99.90
2018-07-11T03:20:06.378Z,99.90
2018-07-11T03:22:34.562Z,99.90
2018-07-11T03:25:02.762Z,99.90
2018-07-11T03:27:30.958Z,99.90
2018-07-11T03:29:59.169Z,99.90
2018-07-11T03:32:27.433Z,99.90
2018-07-11T03:34:55.586Z,99.90
2018-07-11T03:37:23.802Z,99.90
2018-07-11T03:39:52.035Z,99.90
2018-07-11T03:42:20.251Z,99.90
2018-07-11T03:44:48.447Z,99.90
2018-07-11T03:47:16.643Z,99.90
2018-07-11T03:49:44.822Z,99.90
2018-07-11T03:52:13.381Z,99.90
2018-07-11T03:54:41.571Z,99.90
2018-07-11T03:59:37.715Z,99.90
2018-07-11T04:02:06.580Z,99.90
2018-07-11T04:04:34.788Z,99.90
2018-07-11T04:07:02.990Z,99.90
2018-07-11T04:09:31.186Z,99.90
2018-07-11T04:11:59.377Z,99.90
2018-07-11T04:14:27.607Z,99.90
2018-07-11T04:16:55.810Z,99.90
2018-07-11T04:19:24.745Z,99.90
2018-07-11T04:21:52.929Z,99.90
2018-07-11T04:24:21.175Z,99.90
2018-07-11T04:26:49.386Z,99.90
2018-07-11T04:29:17.863Z,99.90
2018-07-11T04:31:46.054Z,99.90
2018-07-11T04:34:14.249Z,99.90
2018-07-11T04:36:42.819Z,99.90
2018-07-11T04:39:11.006Z,99.90
2018-07-11T04:41:39.218Z,99.90
2018-07-11T04:44:07.422Z,99.90
2018-07-11T04:46:36.069Z,99.90
2018-07-11T04:49:04.398Z,99.90
2018-07-11T04:51:32.649Z,99.90
2018-07-11T04:54:00.858Z,99.90
2018-07-11T04:56:29.102Z,99.90
2018-07-11T04:58:57.242Z,99.90
2018-07-11T05:01:25.431Z,99.90
2018-07-11T05:03:53.563Z,99.90
2018-07-11T05:06:21.714Z,99.90
2018-07-11T05:08:49.853Z,99.90
2018-07-11T05:11:18.098Z,99.90
2018-07-11T05:13:46.122Z,99.90
2018-07-11T05:16:14.361Z,99.90
2018-07-11T05:18:42.485Z,99.90
2018-07-11T05:21:10.708Z,99.90
2018-07-11T05:23:38.919Z,99.90
2018-07-11T05:26:07.060Z,99.90
2018-07-11T05:28:36.117Z,99.90
2018-07-11T05:31:04.286Z,99.90
2018-07-11T05:36:00.494Z,99.90
2018-07-11T05:38:28.678Z,99.90
2018-07-11T05:40:56.842Z,99.90
2018-07-11T05:43:25.026Z,99.90
2018-07-11T05:45:53.242Z,99.90
2018-07-11T05:48:22.071Z,99.90
2018-07-11T05:50:50.265Z,99.90
2018-07-11T05:53:18.417Z,99.90
2018-07-11T05:55:46.672Z,99.90
2018-07-11T05:58:14.838Z,99.90
2018-07-11T06:00:43.035Z,99.90
2018-07-11T06:03:11.273Z,99.90
2018-07-11T06:05:39.471Z,99.90
2018-07-11T06:08:07.679Z,99.90
2018-07-11T06:10:35.941Z,99.90
2018-07-11T06:15:32.152Z,99.90
2018-07-11T06:18:00.349Z,99.90
2018-07-11T06:20:28.546Z,99.90
2018-07-11T06:22:56.799Z,99.90
2018-07-11T06:25:25.105Z,99.90
2018-07-11T06:27:53.369Z,99.90
2018-07-11T06:30:21.546Z,99.90
2018-07-11T06:32:49.741Z,99.90
2018-07-11T06:35:17.930Z,99.90
2018-07-11T06:37:46.158Z,99.90
2018-07-11T06:40:14.377Z,99.90
2018-07-11T06:42:42.566Z,99.90
2018-07-11T06:45:10.886Z,99.90
2018-07-11T06:47:39.097Z,99.90
2018-07-11T06:50:07.277Z,99.90
2018-07-11T06:52:35.609Z,99.90
2018-07-11T06:55:03.858Z,99.90
2018-07-11T07:00:00.001Z,99.90
2018-07-11T07:02:28.175Z,99.90
2018-07-11T07:04:56.373Z,99.90
2018-07-11T07:07:24.578Z,99.90
2018-07-11T07:09:52.769Z,99.90
2018-07-11T07:12:20.966Z,99.90
2018-07-11T07:14:49.162Z,99.90
2018-07-11T07:17:17.383Z,99.90
2018-07-11T07:19:45.590Z,99.90
2018-07-11T07:22:13.787Z,99.90
2018-07-11T07:24:42.010Z,99.90
2018-07-11T07:27:10.205Z,99.90
2018-07-11T07:29:38.393Z,99.90
2018-07-11T07:32:06.598Z,99.90
2018-07-11T07:34:34.813Z,99.90
2018-07-11T07:37:03.038Z,99.90
2018-07-11T07:39:31.317Z,99.90
2018-07-11T07:41:59.510Z,99.90
2018-07-11T07:44:28.522Z,99.90
2018-07-11T07:46:59.683Z,99.90
2018-07-11T07:49:28.674Z,99.90
2018-07-11T07:51:57.263Z,99.90
2018-07-11T07:56:53.561Z,99.90
2018-07-11T07:59:22.194Z,99.80
2018-07-11T08:01:50.594Z,98.80
2018-07-11T08:04:18.795Z,98.70
2018-07-11T08:06:47.030Z,98.50
2018-07-11T08:09:15.546Z,98.10
2018-07-11T08:11:43.745Z,97.50
2018-07-11T08:14:12.050Z,97.30
2018-07-11T08:16:40.255Z,96.60
2018-07-11T08:19:08.438Z,95.90
2018-07-11T08:21:36.718Z,96.20
2018-07-11T08:24:16.477Z,96.30
2018-07-11T08:26:55.954Z,96.70
2018-07-11T08:29:35.958Z,96.70
2018-07-11T08:34:33.792Z,95.90
2018-07-11T08:37:10.287Z,96.40
2018-07-11T08:40:06.313Z,96.40
2018-07-11T08:43:03.394Z,97.20
2018-07-11T08:46:17.986Z,97.10
2018-07-11T08:48:58.073Z,96.90
2018-07-11T08:51:39.214Z,97.30
2018-07-11T08:54:20.150Z,96.80
2018-07-11T08:56:58.211Z,97.30
2018-07-11T08:59:43.149Z,96.10
2018-07-11T09:02:23.197Z,97.00
2018-07-11T09:05:05.151Z,96.60
2018-07-11T09:07:46.617Z,96.00
2018-07-11T09:11:32.407Z,96.30
2018-07-11T09:14:12.061Z,96.80
2018-07-11T09:16:52.506Z,96.20
2018-07-11T09:20:31.626Z,95.70
2018-07-11T09:23:12.853Z,95.70
2018-07-11T09:25:41.122Z,96.10
2018-07-11T09:28:09.427Z,96.00
2018-07-11T09:30:37.644Z,96.00
2018-07-11T09:33:05.821Z,95.30
2018-07-11T09:35:34.049Z,95.10
2018-07-11T09:38:02.249Z,94.70
2018-07-11T09:40:30.449Z,94.70
2018-07-11T09:42:58.646Z,94.70
2018-07-11T09:45:26.926Z,95.40
2018-07-11T09:47:55.172Z,95.10
2018-07-11T09:50:23.365Z,95.00
2018-07-11T09:52:51.577Z,94.70
2018-07-11T09:55:19.790Z,94.60
2018-07-11T09:57:48.269Z,94.50
2018-07-11T10:00:21.918Z,94.90
2018-07-11T10:02:50.142Z,95.30
2018-07-11T10:05:18.393Z,95.00
2018-07-11T10:07:46.589Z,95.60
2018-07-11T10:10:14.803Z,95.70
2018-07-11T10:12:42.986Z,95.90
2018-07-11T10:15:11.178Z,96.20
2018-07-11T10:17:39.384Z,96.70
2018-07-11T10:20:07.654Z,97.30
2018-07-11T10:22:35.858Z,97.70
2018-07-11T10:25:04.131Z,97.40
2018-07-11T10:27:32.325Z,97.30
2018-07-11T10:30:00.517Z,97.40
2018-07-11T10:32:28.721Z,97.30
2018-07-11T10:34:56.950Z,96.90
2018-07-11T10:37:25.298Z,96.90
2018-07-11T10:39:53.498Z,96.80
2018-07-11T10:42:21.766Z,97.20
2018-07-11T10:44:50.001Z,97.20
2018-07-11T10:47:18.202Z,97.70
2018-07-11T10:49:46.397Z,97.10
2018-07-11T10:52:14.589Z,97.00
2018-07-11T10:54:42.782Z,97.00
2018-07-11T10:57:10.996Z,97.00
2018-07-11T10:59:39.185Z,97.40
2018-07-11T11:02:07.417Z,96.90
2018-07-11T11:04:35.654Z,96.80
2018-07-11T11:07:03.888Z,96.30
2018-07-11T11:09:32.066Z,96.30
2018-07-11T11:12:00.292Z,96.30
2018-07-11T11:14:28.453Z,96.40
2018-07-11T11:16:56.642Z,96.70
2018-07-11T11:19:24.891Z,96.80
2018-07-11T11:21:53.074Z,97.30
2018-07-11T11:24:21.278Z,97.70
2018-07-11T11:26:49.486Z,98.20
2018-07-11T11:29:17.702Z,99.10
2018-07-11T11:31:45.936Z,98.70
2018-07-11T11:34:14.138Z,99.10
2018-07-11T11:36:42.452Z,99.40
2018-07-11T11:39:10.637Z,99.50
2018-07-11T11:41:39.007Z,99.10
2018-07-11T11:44:07.077Z,98.60
2018-07-11T11:46:35.282Z,98.50
2018-07-11T11:49:03.509Z,98.80
2018-07-11T11:51:31.710Z,98.90
2018-07-11T11:53:59.919Z,98.80
2018-07-11T11:56:28.070Z,98.90
2018-07-11T11:58:56.222Z,98.80
2018-07-11T12:01:24.362Z,98.70
2018-07-11T12:03:52.511Z,98.80
2018-07-11T12:06:20.641Z,98.90
2018-07-11T12:08:48.790Z,98.90
2018-07-11T12:11:16.911Z,99.40
2018-07-11T12:13:45.043Z,99.90
2018-07-11T12:16:13.186Z,99.90
2018-07-11T12:18:41.329Z,99.90
2018-07-11T12:21:09.531Z,99.90
2018-07-11T12:23:37.642Z,99.90
2018-07-11T12:26:08.786Z,99.90
2018-07-11T12:31:05.441Z,99.90
2018-07-11T12:33:33.846Z,99.90
2018-07-11T12:36:02.209Z,99.90
2018-07-11T12:38:30.486Z,99.90
2018-07-11T12:43:27.400Z,99.90
2018-07-11T12:45:56.179Z,99.90
2018-07-11T12:49:31.522Z,99.90
2018-07-11T12:51:59.670Z,99.90
2018-07-11T12:54:27.814Z,99.90
2018-07-11T12:56:56.043Z,99.90
2018-07-11T12:59:25.181Z,99.90
2018-07-11T13:01:53.425Z,99.90
2018-07-11T13:04:22.865Z,99.90
2018-07-11T13:06:51.182Z,99.90
2018-07-11T13:09:19.394Z,99.90
2018-07-11T13:11:47.611Z,99.90
2018-07-11T13:16:43.800Z,99.90
2018-07-11T13:19:11.934Z,99.90
2018-07-11T13:21:40.186Z,99.90
2018-07-11T13:24:08.350Z,99.90
2018-07-11T13:26:36.554Z,99.90
2018-07-11T13:29:04.834Z,99.90
2018-07-11T13:31:33.037Z,99.90
2018-07-11T13:34:01.186Z,99.90
2018-07-11T13:36:29.417Z,99.90
2018-07-11T13:38:57.537Z,99.90
2018-07-11T13:41:25.693Z,99.90
2018-07-11T13:43:53.867Z,99.90
2018-07-11T13:46:22.042Z,99.90
2018-07-11T13:48:50.182Z,99.90
2018-07-11T13:51:18.346Z,99.90
2018-07-11T13:53:46.639Z,99.90
2018-07-11T13:58:44.037Z,99.90
2018-07-11T14:01:12.226Z,99.90
2018-07-11T14:03:40.458Z,99.90
2018-07-11T14:06:08.854Z,99.90
2018-07-11T14:08:37.157Z,99.90
2018-07-11T14:11:05.708Z,99.90
2018-07-11T14:13:34.110Z,99.90
2018-07-11T14:16:02.542Z,99.90
2018-07-11T14:18:30.784Z,99.90
2018-07-11T14:20:58.986Z,99.90
2018-07-11T14:23:36.491Z,99.90
2018-07-11T14:26:04.909Z,99.90
2018-07-11T14:28:33.417Z,99.90
2018-07-11T14:31:02.196Z,99.90
2018-07-11T14:33:31.446Z,99.90
2018-07-11T14:36:00.320Z,99.90
2018-07-11T14:38:29.193Z,99.90
2018-07-11T14:40:59.926Z,99.90
2018-07-11T14:43:28.285Z,99.90
2018-07-11T14:45:56.579Z,99.90
2018-07-11T14:48:24.791Z,99.90
2018-07-11T14:50:53.007Z,99.90
2018-07-11T14:53:21.330Z,99.90
2018-07-11T14:55:49.549Z,99.90
2018-07-11T14:58:17.787Z,99.90
2018-07-11T15:00:45.957Z,99.90
2018-07-11T15:05:42.158Z,99.90
2018-07-11T15:08:10.398Z,99.90
2018-07-11T15:10:38.557Z,99.90
2018-07-11T15:13:06.879Z,99.90
2018-07-11T15:15:35.158Z,99.90
2018-07-11T15:18:03.395Z,99.90
2018-07-11T15:20:31.606Z,99.90
2018-07-11T15:22:59.858Z,99.90
2018-07-11T15:25:28.010Z,99.90
2018-07-11T15:27:56.355Z,99.90
2018-07-11T15:30:24.538Z,99.90
2018-07-11T15:32:52.741Z,99.90
2018-07-11T15:35:20.966Z,99.90
2018-07-11T15:37:49.214Z,99.90
2018-07-11T15:40:17.425Z,99.90
2018-07-11T15:45:13.959Z,99.90
2018-07-11T15:47:43.990Z,99.90
2018-07-11T15:50:12.445Z,99.90
2018-07-11T15:52:40.934Z,99.90
2018-07-11T15:55:09.103Z,99.90
2018-07-11T15:57:43.522Z,99.90
2018-07-11T16:00:13.278Z,99.90
2018-07-11T16:02:42.735Z,99.90
2018-07-11T16:05:13.473Z,99.90
2018-07-11T16:07:44.455Z,99.90
2018-07-11T16:10:12.607Z,99.90
2018-07-11T16:12:40.778Z,99.90
2018-07-11T16:15:08.937Z,99.90
2018-07-11T16:17:37.166Z,99.90
2018-07-11T16:20:05.315Z,99.90
2018-07-11T16:22:33.586Z,99.90
2018-07-11T16:25:01.755Z,99.90
2018-07-11T16:27:29.919Z,99.90
2018-07-11T16:29:58.049Z,99.90
2018-07-11T16:32:26.248Z,99.90
2018-07-11T16:34:54.426Z,99.90
2018-07-11T16:37:22.554Z,99.90
2018-07-11T16:39:50.773Z,99.90
2018-07-11T16:42:18.965Z,99.90
2018-07-11T16:44:48.059Z,99.90
2018-07-11T16:47:16.570Z,99.90
2018-07-11T16:49:44.734Z,99.90
2018-07-11T16:52:13.949Z,99.90
2018-07-11T16:54:43.105Z,99.90
2018-07-11T16:57:13.319Z,99.90
2018-07-11T16:59:49.893Z,99.90
2018-07-11T17:02:22.281Z,99.90
2018-07-11T17:07:21.098Z,99.90
2018-07-11T17:09:50.693Z,99.90
2018-07-11T17:12:19.700Z,99.90
2018-07-11T17:14:48.385Z,99.90
2018-07-11T17:17:18.618Z,99.90
2018-07-11T17:19:57.522Z,99.90
2018-07-11T17:22:27.962Z,99.90
2018-07-11T17:27:24.946Z,99.90
2018-07-11T17:29:57.542Z,99.90
2018-07-11T17:32:25.786Z,99.90
2018-07-11T17:34:54.373Z,99.90
2018-07-11T17:37:26.350Z,99.90
2018-07-11T17:39:56.761Z,99.90
2018-07-11T17:42:28.337Z,99.90
2018-07-11T17:45:18.377Z,99.90
2018-07-11T17:48:00.205Z,99.90
2018-07-11T17:50:29.274Z,99.90
2018-07-11T17:53:18.252Z,99.90
2018-07-11T17:58:21.413Z,99.90
2018-07-11T18:00:53.927Z,99.90
2018-07-11T18:05:33.162Z,99.90
2018-07-11T18:08:05.970Z,99.90
2018-07-11T18:10:46.735Z,99.90
2018-07-11T18:13:21.350Z,99.90
2018-07-11T18:15:58.153Z,99.90
2018-07-11T18:18:46.646Z,99.90
2018-07-11T18:21:24.682Z,99.90
2018-07-11T18:24:09.570Z,99.90
2018-07-11T18:30:01.373Z,99.90
2018-07-11T18:34:46.680Z,99.90
2018-07-11T18:37:58.944Z,99.90
2018-07-11T18:40:32.649Z,99.90
2018-07-11T18:45:47.938Z,99.90
2018-07-11T18:48:27.329Z,99.90
2018-07-11T18:51:05.655Z,99.90
2018-07-11T18:53:47.907Z,99.90
2018-07-11T18:56:31.889Z,99.90
2018-07-11T18:59:19.542Z,99.90
2018-07-11T19:01:59.905Z,99.90
2018-07-11T19:04:44.030Z,99.90
2018-07-11T19:07:20.175Z,99.90
2018-07-11T19:09:57.973Z,99.90
2018-07-11T19:12:28.023Z,99.90
2018-07-11T19:15:12.307Z,99.90
2018-07-11T19:18:06.228Z,99.90
2018-07-11T19:20:37.457Z,99.90
2018-07-11T19:23:14.483Z,99.90
2018-07-11T19:25:55.934Z,99.90
2018-07-11T19:29:34.469Z,99.90
2018-07-11T19:32:12.019Z,99.90
2018-07-11T19:35:51.938Z,99.90
2018-07-11T19:38:41.582Z,99.90
2018-07-11T19:41:24.600Z,99.90
2018-07-11T19:44:06.369Z,99.90
2018-07-11T19:48:51.871Z,99.90
2018-07-11T19:51:42.875Z,99.90
2018-07-11T19:54:17.197Z,99.90
2018-07-11T19:56:47.233Z,99.90
2018-07-11T19:59:15.710Z,99.90
2018-07-11T20:01:44.211Z,99.90
2018-07-11T20:04:13.532Z,99.90
2018-07-11T20:06:41.883Z,99.90
2018-07-11T20:09:10.312Z,99.90
2018-07-11T20:11:38.562Z,99.90
2018-07-11T20:14:07.085Z,99.90
2018-07-11T20:16:35.366Z,99.90
2018-07-11T20:19:03.626Z,99.90
2018-07-11T20:21:32.000Z,99.90
2018-07-11T20:24:00.574Z,99.90
2018-07-11T20:28:57.214Z,99.90
2018-07-11T20:31:25.682Z,99.90
2018-07-11T20:33:54.061Z,99.90
2018-07-11T20:36:22.267Z,99.90
2018-07-11T20:38:50.470Z,99.90
2018-07-11T20:41:18.705Z,99.90
2018-07-11T20:43:46.930Z,99.90
2018-07-11T20:46:15.522Z,99.90
2018-07-11T20:48:43.754Z,99.90
2018-07-11T20:51:11.951Z,99.90
2018-07-11T20:53:40.230Z,99.90
2018-07-11T20:56:08.389Z,99.90
2018-07-11T20:58:48.076Z,99.90
2018-07-11T21:01:27.778Z,99.90
2018-07-11T21:04:12.038Z,99.90
2018-07-11T21:06:51.978Z,99.90
2018-07-11T21:09:49.374Z,99.90
2018-07-11T21:12:29.177Z,99.90
2018-07-11T21:15:07.702Z,99.90
2018-07-11T21:18:47.597Z,99.90
2018-07-11T21:21:15.786Z,99.90
2018-07-11T21:23:43.938Z,99.90
2018-07-11T21:26:12.079Z,99.90
2018-07-11T21:28:40.211Z,99.90
2018-07-11T21:31:08.390Z,99.90
2018-07-11T21:33:36.546Z,99.90
2018-07-11T21:36:04.693Z,99.90
2018-07-11T21:38:32.849Z,99.90
2018-07-11T21:41:01.020Z,99.90
2018-07-11T21:43:29.185Z,99.90
2018-07-11T21:45:57.590Z,99.90
2018-07-11T21:48:25.726Z,99.90
2018-07-11T21:50:53.878Z,99.90
2018-07-11T21:53:22.016Z,99.90
2018-07-11T21:55:50.233Z,99.90
2018-07-11T21:58:18.685Z,99.90
2018-07-11T22:00:46.918Z,99.90
2018-07-11T22:03:15.107Z,99.90
2018-07-11T22:05:43.318Z,99.90
2018-07-11T22:08:11.505Z,99.90
2018-07-11T22:10:40.151Z,99.90
2018-07-11T22:13:08.826Z,99.90
2018-07-11T22:15:37.022Z,99.90
2018-07-11T22:18:16.954Z,99.90
2018-07-11T22:20:44.158Z,99.90
2018-07-11T22:23:11.354Z,99.90
2018-07-11T22:25:38.550Z,99.90
2018-07-11T22:28:05.742Z,99.90
2018-07-11T22:30:32.970Z,99.90
2018-07-11T22:33:00.162Z,99.90
2018-07-11T22:35:27.375Z,99.90
2018-07-11T22:37:54.573Z,99.90
2018-07-11T22:40:21.759Z,99.90
2018-07-11T22:45:16.469Z,99.90
2018-07-11T22:47:43.665Z,99.90
2018-07-11T22:50:10.862Z,99.90
2018-07-11T22:52:38.168Z,99.90
2018-07-11T22:55:05.255Z,99.90
2018-07-11T22:57:32.450Z,99.90
2018-07-11T22:59:59.642Z,99.90
2018-07-11T23:02:26.841Z,99.90
2018-07-11T23:04:54.038Z,99.90
2018-07-11T23:07:21.234Z,99.90
2018-07-11T23:09:48.430Z,99.90
2018-07-11T23:12:15.638Z,99.90
2018-07-11T23:14:42.828Z,99.90
2018-07-11T23:19:38.311Z,99.90
2018-07-11T23:22:05.519Z,99.90
2018-07-11T23:24:32.715Z,99.90
2018-07-11T23:26:59.921Z,99.90
2018-07-11T23:29:27.122Z,99.90
2018-07-11T23:31:54.310Z,99.90
2018-07-11T23:34:21.514Z,99.90
2018-07-11T23:36:48.714Z,99.90
2018-07-11T23:39:15.975Z,99.90
2018-07-11T23:41:43.169Z,99.90
2018-07-11T23:44:10.374Z,99.90
2018-07-11T23:46:37.558Z,99.90
2018-07-11T23:49:04.767Z,99.90
2018-07-11T23:51:31.982Z,99.90
2018-07-11T23:53:59.186Z,99.90
2018-07-11T23:56:26.422Z,99.90
2018-07-11T23:58:53.631Z,99.90
